Terminal Aerodrome Forecast
Issued by NWS Wilmington, OH

Current Version | Previous Version | Text Only | Print | Product List | Glossary Off
Versions: 1 2 3 4 5 6 7 8 9 10 11 12 13

300
FTUS41 KILN 220535
TAFILN
TAF
KILN 220535Z 2206/2306 32005KT P6SM SKC
     FM221400 32010KT P6SM BKN100
     FM221800 34011KT P6SM BKN050
     FM230000 01006KT P6SM FEW060=

USA.gov is the U.S. government's official web portal to all federal, state and local government web resources and services.